Time;durP1;ratioP1;P1;durP2;ratioP2;P2;SDS_P1;SDS_P2;PMS_P1;PMS_P2;Temp;Humidity;BMP_temperature;BMP_pressure;BME280_temperature;BME280_humidity;BME280_pressure;Samples;Min_cycle;Max_cycle;Signal;HPM_P1;HPM_P2
2021/12/27 00:00:22;;;;;;;22.92;15.27;;;4.30;99.90;;;;;;4997195;28;20073;-49
2021/12/27 00:02:51;;;;;;;676.17;616.35;;;4.50;99.90;;;;;;4984200;28;20077;-49
2021/12/27 00:05:17;;;;;;;747.10;680.85;;;4.60;99.90;;;;;;5004335;28;20145;-48
2021/12/27 00:07:47;;;;;;;10.25;6.72;;;4.60;99.90;;;;;;4992832;28;20034;-48
2021/12/27 00:10:13;;;;;;;10.27;8.00;;;4.60;99.90;;;;;;4994685;28;20200;-49
2021/12/27 00:12:40;;;;;;;10.98;8.38;;;4.70;99.90;;;;;;5000545;28;20104;-48
2021/12/27 00:15:06;;;;;;;12.13;9.00;;;4.40;99.90;;;;;;4961472;28;20046;-48
2021/12/27 00:17:32;;;;;;;511.42;464.52;;;4.40;99.90;;;;;;5002362;28;20057;-49
2021/12/27 00:19:57;;;;;;;392.15;357.35;;;4.60;99.90;;;;;;5005280;28;20042;-48
2021/12/27 00:22:23;;;;;;;619.40;560.28;;;4.70;99.90;;;;;;5011381;28;20037;-49
2021/12/27 00:24:50;;;;;;;12.55;8.23;;;4.80;99.90;;;;;;5012015;28;20122;-49
2021/12/27 00:27:17;;;;;;;13.95;9.93;;;5.00;99.90;;;;;;5011800;28;20100;-48
2021/12/27 00:29:44;;;;;;;11.27;8.43;;;5.10;99.90;;;;;;5011736;28;20125;-49
2021/12/27 00:32:10;;;;;;;12.35;9.93;;;5.10;99.90;;;;;;5011559;28;20049;-49
2021/12/27 00:34:36;;;;;;;30.30;22.05;;;5.20;99.90;;;;;;5012145;28;20135;-48
2021/12/27 00:37:04;;;;;;;13.80;10.23;;;5.40;99.90;;;;;;4963013;28;20137;-49
2021/12/27 00:39:30;;;;;;;16.27;14.63;;;5.50;99.90;;;;;;5011676;28;20045;-49
2021/12/27 00:41:55;;;;;;;55.22;48.08;;;5.40;99.90;;;;;;4978861;28;20046;-48
2021/12/27 00:44:21;;;;;;;604.55;545.92;;;5.50;99.90;;;;;;4979056;28;20415;-48
2021/12/27 00:46:47;;;;;;;495.05;457.88;;;5.40;99.90;;;;;;5011573;28;20034;-49
2021/12/27 00:49:13;;;;;;;330.40;303.52;;;5.30;99.90;;;;;;5013116;28;20115;-48
2021/12/27 00:51:39;;;;;;;754.38;697.13;;;5.40;99.90;;;;;;4991788;28;20042;-49
2021/12/27 00:54:04;;;;;;;711.00;645.73;;;5.40;99.90;;;;;;4959532;28;20077;-48
2021/12/27 00:56:30;;;;;;;675.90;611.30;;;5.50;99.90;;;;;;4991758;28;20039;-48
2021/12/27 00:58:56;;;;;;;712.72;647.35;;;5.60;99.90;;;;;;4959593;28;20101;-48
2021/12/27 01:01:22;;;;;;;697.80;634.30;;;5.80;99.90;;;;;;4911682;28;20049;-49
2021/12/27 01:03:48;;;;;;;819.03;749.65;;;5.80;99.90;;;;;;4991549;28;20053;-48
2021/12/27 01:06:13;;;;;;;780.78;710.10;;;5.90;99.90;;;;;;4991724;28;20474;-49
2021/12/27 01:08:39;;;;;;;664.47;597.43;;;6.10;99.90;;;;;;4991750;28;20038;-49
2021/12/27 01:16:48;;;;;;;19.17;13.23;;;6.30;99.90;;;;;;4933787;29;20493;-49
2021/12/27 01:19:14;;;;;;;98.22;87.90;;;6.30;99.90;;;;;;4933853;29;20067;-49
2021/12/27 01:21:39;;;;;;;325.35;294.63;;;6.20;99.90;;;;;;4905949;28;20131;-49
2021/12/27 01:24:06;;;;;;;165.88;152.43;;;6.20;99.90;;;;;;4972229;28;20356;-49
2021/12/27 01:26:32;;;;;;;421.13;385.48;;;6.20;99.90;;;;;;4955968;28;20483;-48
2021/12/27 01:28:59;;;;;;;708.10;656.67;;;6.30;99.90;;;;;;4955946;28;20058;-49
2021/12/27 01:31:25;;;;;;;737.28;672.28;;;6.30;99.90;;;;;;4972237;28;20117;-48
2021/12/27 01:33:51;;;;;;;728.20;662.17;;;6.30;99.90;;;;;;4972080;28;20583;-49
2021/12/27 01:36:17;;;;;;;637.25;577.90;;;6.30;99.90;;;;;;4959438;28;20027;-48
2021/12/27 01:38:45;;;;;;;715.05;648.47;;;6.20;99.90;;;;;;4975564;28;20078;-49
2021/12/27 01:41:14;;;;;;;561.33;515.50;;;6.20;99.90;;;;;;4975775;28;20054;-49
2021/12/27 01:43:40;;;;;;;701.92;643.58;;;5.90;99.90;;;;;;4975638;28;20438;-49
2021/12/27 01:46:09;;;;;;;471.75;438.23;;;5.70;99.90;;;;;;4975898;28;20558;-48
2021/12/27 01:48:39;;;;;;;59.45;51.30;;;5.70;99.90;;;;;;4973308;28;20047;-49
2021/12/27 01:51:11;;;;;;;20.50;14.95;;;5.70;99.90;;;;;;4975554;28;20037;-49
2021/12/27 01:53:39;;;;;;;23.35;17.15;;;6.00;99.90;;;;;;5016638;28;20038;-49
2021/12/27 01:56:07;;;;;;;22.30;17.70;;;5.90;99.90;;;;;;5017041;28;20042;-49
2021/12/27 01:58:33;;;;;;;23.25;16.58;;;5.90;99.90;;;;;;5016587;28;20037;-49
2021/12/27 02:01:04;;;;;;;24.27;17.40;;;5.80;99.90;;;;;;5016727;28;20037;-48
2021/12/27 02:03:32;;;;;;;20.73;14.32;;;5.60;99.90;;;;;;5021804;28;20056;-49
2021/12/27 02:05:58;;;;;;;20.35;15.82;;;5.40;99.90;;;;;;5036440;28;20611;-49
2021/12/27 02:08:25;;;;;;;20.60;14.38;;;5.30;99.90;;;;;;5001430;28;20094;-49
2021/12/27 02:10:51;;;;;;;25.23;16.25;;;5.30;99.90;;;;;;5036513;28;20112;-49
2021/12/27 02:13:17;;;;;;;25.13;17.48;;;5.10;99.90;;;;;;5001398;28;20055;-48
2021/12/27 02:15:43;;;;;;;22.85;16.20;;;5.20;99.90;;;;;;5001425;28;20038;-49
2021/12/27 02:18:09;;;;;;;22.83;15.95;;;5.20;99.90;;;;;;5036500;28;20029;-49
2021/12/27 02:20:36;;;;;;;22.38;14.02;;;5.00;99.90;;;;;;5036253;28;20111;-49
2021/12/27 02:23:07;;;;;;;19.38;13.32;;;5.00;99.90;;;;;;5032811;28;20036;-49
2021/12/27 02:25:34;;;;;;;18.45;13.35;;;4.90;99.90;;;;;;5035958;28;20075;-49
2021/12/27 02:28:04;;;;;;;18.13;13.45;;;4.80;99.90;;;;;;5036027;28;20113;-49
2021/12/27 02:30:30;;;;;;;20.30;14.90;;;4.90;99.90;;;;;;5036100;28;20068;-49
2021/12/27 02:33:00;;;;;;;19.42;13.95;;;4.90;99.90;;;;;;5035483;28;20049;-49
2021/12/27 02:35:48;;;;;;;17.98;12.75;;;4.90;99.90;;;;;;5035889;28;20095;-49
2021/12/27 02:38:23;;;;;;;18.80;13.77;;;4.90;99.90;;;;;;5036047;28;20489;-49
2021/12/27 02:40:52;;;;;;;21.88;13.90;;;4.90;99.90;;;;;;5035505;28;20037;-49
2021/12/27 02:43:23;;;;;;;20.52;14.80;;;4.90;99.90;;;;;;5035911;28;20057;-48
2021/12/27 02:45:52;;;;;;;22.42;16.13;;;5.10;99.90;;;;;;5035265;28;20033;-48
2021/12/27 02:48:22;;;;;;;21.02;14.75;;;4.90;99.90;;;;;;5035631;28;20052;-49
2021/12/27 02:50:49;;;;;;;19.13;14.15;;;4.90;99.90;;;;;;5035354;28;20033;-48
2021/12/27 02:53:16;;;;;;;98.60;81.00;;;5.10;99.90;;;;;;5035093;28;20120;-48
2021/12/27 02:55:42;;;;;;;22.98;16.92;;;5.10;99.90;;;;;;5035315;28;20453;-49
2021/12/27 02:58:08;;;;;;;28.45;21.50;;;5.20;99.90;;;;;;5035267;28;20040;-49
2021/12/27 03:00:42;;;;;;;30.33;22.15;;;5.30;99.90;;;;;;5001140;28;20049;-49
2021/12/27 03:03:07;;;;;;;26.20;18.17;;;5.30;99.90;;;;;;5034767;28;20037;-48
2021/12/27 03:05:33;;;;;;;24.08;16.35;;;5.40;99.90;;;;;;5035137;28;20076;-48
2021/12/27 03:08:00;;;;;;;24.00;15.18;;;5.20;99.90;;;;;;5035089;28;20088;-49
2021/12/27 03:10:31;;;;;;;14.93;10.30;;;5.10;99.90;;;;;;5035136;28;20045;-48
2021/12/27 03:13:02;;;;;;;425.05;387.02;;;5.10;99.90;;;;;;5032019;28;20545;-48
2021/12/27 03:15:28;;;;;;;14.13;10.63;;;5.30;99.90;;;;;;5035081;28;20115;-48
2021/12/27 03:17:55;;;;;;;13.65;10.65;;;5.40;99.90;;;;;;5035464;28;20476;-49
2021/12/27 03:20:24;;;;;;;14.55;11.70;;;5.40;99.90;;;;;;4984029;28;20041;-49
2021/12/27 03:22:50;;;;;;;13.05;11.75;;;5.60;99.90;;;;;;5016949;28;20065;-49
2021/12/27 03:25:19;;;;;;;10.32;7.40;;;5.50;99.90;;;;;;5035155;28;20075;-49
2021/12/27 03:27:46;;;;;;;114.57;102.82;;;5.70;99.90;;;;;;5035210;28;20029;-49
2021/12/27 03:30:22;;;;;;;15.32;11.05;;;5.50;99.90;;;;;;4954065;29;20141;-49
2021/12/27 03:32:48;;;;;;;47.97;29.00;;;5.70;99.90;;;;;;4938228;29;20050;-48
2021/12/27 03:35:18;;;;;;;34.28;26.75;;;5.70;99.90;;;;;;4954348;29;20431;-49
2021/12/27 03:37:50;;;;;;;25.40;17.20;;;5.70;99.90;;;;;;4954334;29;20039;-49
2021/12/27 03:40:18;;;;;;;132.20;121.88;;;5.60;99.90;;;;;;4954216;29;20043;-49
2021/12/27 03:42:50;;;;;;;245.57;219.57;;;5.60;99.90;;;;;;4954205;29;20039;-48
2021/12/27 03:45:18;;;;;;;367.70;340.15;;;5.70;99.90;;;;;;4954100;29;20043;-48
2021/12/27 03:47:45;;;;;;;15.32;11.82;;;5.70;99.90;;;;;;4954329;29;20118;-49
2021/12/27 03:50:11;;;;;;;14.75;11.40;;;5.80;99.90;;;;;;4954002;29;20043;-49
2021/12/27 03:52:37;;;;;;;16.38;14.27;;;5.90;99.90;;;;;;4953963;29;20043;-49
2021/12/27 03:55:04;;;;;;;517.03;477.67;;;5.90;99.90;;;;;;4922319;29;20043;-48
2021/12/27 03:57:32;;;;;;;30.08;26.48;;;5.90;99.90;;;;;;4889928;29;20043;-49
2021/12/27 04:00:16;;;;;;;25.00;22.25;;;6.00;99.90;;;;;;4953967;28;20035;-48
2021/12/27 04:02:42;;;;;;;16.90;11.65;;;5.90;99.90;;;;;;5033914;28;20041;-49
2021/12/27 04:05:09;;;;;;;252.68;231.65;;;5.70;99.90;;;;;;5033836;28;20045;-48
2021/12/27 04:07:37;;;;;;;16.88;11.80;;;5.50;99.90;;;;;;5034261;28;20036;-48
2021/12/27 04:10:05;;;;;;;17.42;11.45;;;5.40;99.90;;;;;;5033802;28;20037;-48
2021/12/27 04:12:31;;;;;;;494.48;449.98;;;5.20;99.90;;;;;;5033767;28;20481;-49
2021/12/27 04:14:56;;;;;;;17.65;11.63;;;5.30;99.90;;;;;;5034116;28;20037;-49
2021/12/27 04:17:22;;;;;;;18.08;12.95;;;5.10;99.90;;;;;;4999202;28;20076;-49
2021/12/27 04:19:48;;;;;;;18.58;12.63;;;4.90;99.90;;;;;;5033761;28;20025;-48
2021/12/27 04:22:14;;;;;;;17.42;12.02;;;4.90;99.90;;;;;;5033619;28;20481;-48
2021/12/27 04:24:40;;;;;;;18.10;11.45;;;4.90;99.90;;;;;;5033761;28;20048;-48
2021/12/27 04:27:05;;;;;;;18.15;11.57;;;4.80;99.90;;;;;;5033622;28;20037;-49
2021/12/27 04:29:31;;;;;;;16.88;12.52;;;4.70;99.90;;;;;;4999035;28;20071;-49
2021/12/27 04:31:57;;;;;;;12.25;8.90;;;4.70;99.90;;;;;;4966517;28;20408;-48
2021/12/27 04:34:23;;;;;;;11.43;8.25;;;4.90;99.90;;;;;;4982852;28;20123;-49
2021/12/27 04:36:49;;;;;;;11.40;7.63;;;5.00;99.90;;;;;;4982891;28;20045;-48
2021/12/27 04:39:14;;;;;;;13.05;9.48;;;5.10;99.90;;;;;;5033476;28;20116;-48
2021/12/27 04:41:40;;;;;;;11.40;9.05;;;5.20;99.90;;;;;;5033283;28;20614;-48
2021/12/27 04:44:06;;;;;;;14.38;9.68;;;5.30;99.90;;;;;;5033481;28;20060;-49
2021/12/27 04:46:32;;;;;;;13.20;9.40;;;5.40;99.90;;;;;;4998698;28;20489;-49
2021/12/27 04:48:58;;;;;;;12.85;9.55;;;5.40;99.90;;;;;;5033285;28;20033;-49
2021/12/27 04:51:23;;;;;;;11.10;8.60;;;5.70;99.90;;;;;;5033433;28;20040;-49
2021/12/27 04:53:51;;;;;;;11.82;9.32;;;5.60;99.90;;;;;;5033637;28;20555;-49
2021/12/27 04:56:17;;;;;;;12.23;9.18;;;5.40;99.90;;;;;;5033311;28;20489;-49
2021/12/27 04:58:46;;;;;;;12.48;9.68;;;5.20;99.90;;;;;;5033542;28;20065;-49
2021/12/27 05:01:13;;;;;;;12.38;9.23;;;5.00;99.90;;;;;;5026868;28;20351;-49
2021/12/27 05:03:40;;;;;;;12.23;8.80;;;4.90;99.90;;;;;;5031985;28;20042;-49
2021/12/27 05:06:06;;;;;;;11.02;7.57;;;4.90;99.90;;;;;;5033252;28;20504;-49
2021/12/27 05:08:32;;;;;;;10.90;8.35;;;5.10;99.90;;;;;;5033960;28;20033;-49
2021/12/27 05:10:58;;;;;;;9.45;7.88;;;5.30;99.90;;;;;;5037116;28;20485;-49
2021/12/27 05:13:24;;;;;;;9.90;7.75;;;5.20;99.90;;;;;;5030907;28;20085;-49
2021/12/27 05:15:50;;;;;;;8.68;7.15;;;5.00;99.90;;;;;;5036981;28;20488;-49
2021/12/27 05:18:16;;;;;;;8.55;7.25;;;5.20;99.90;;;;;;4986295;28;20080;-48
2021/12/27 05:20:42;;;;;;;9.50;7.45;;;4.80;99.90;;;;;;5037069;28;20033;-49
2021/12/27 05:23:08;;;;;;;8.63;7.00;;;4.70;99.90;;;;;;5022298;28;20389;-49
2021/12/27 05:25:34;;;;;;;8.82;6.07;;;4.60;99.90;;;;;;4993887;28;20041;-49
2021/12/27 05:28:00;;;;;;;8.98;7.47;;;4.70;99.90;;;;;;4998689;28;20501;-49
2021/12/27 05:30:26;;;;;;;11.32;8.60;;;5.00;99.90;;;;;;4995556;28;20049;-48
2021/12/27 05:32:52;;;;;;;8.65;6.60;;;5.40;99.90;;;;;;5036712;28;20033;-49
2021/12/27 05:35:18;;;;;;;10.68;7.75;;;5.10;99.90;;;;;;5036831;28;20508;-48
2021/12/27 05:37:45;;;;;;;10.93;8.23;;;5.00;99.90;;;;;;5036898;28;20124;-49
2021/12/27 05:40:18;;;;;;;9.85;7.50;;;4.90;99.90;;;;;;4991555;28;20092;-48
2021/12/27 05:42:44;;;;;;;11.27;8.23;;;5.00;99.90;;;;;;5029052;28;20369;-49
2021/12/27 05:45:10;;;;;;;10.27;7.97;;;5.10;99.90;;;;;;5036763;28;20087;-48
2021/12/27 05:47:36;;;;;;;12.73;10.00;;;4.90;99.90;;;;;;5036840;28;20033;-50
2021/12/27 05:50:04;;;;;;;12.80;9.68;;;4.90;99.90;;;;;;5036473;28;20057;-50
2021/12/27 05:52:30;;;;;;;12.77;10.55;;;5.10;99.90;;;;;;4985973;28;20144;-49
2021/12/27 05:54:56;;;;;;;11.75;8.30;;;5.30;99.90;;;;;;5029848;28;20564;-50
2021/12/27 05:57:22;;;;;;;14.18;10.93;;;5.30;99.90;;;;;;4900248;28;20033;-49
2021/12/27 05:59:48;;;;;;;15.48;12.73;;;5.20;99.90;;;;;;5046587;28;20030;-50
2021/12/27 06:02:14;;;;;;;12.80;10.40;;;5.20;99.90;;;;;;5030426;28;20030;-48
2021/12/27 06:04:40;;;;;;;12.50;9.80;;;5.30;99.90;;;;;;5020079;28;20045;-48
2021/12/27 06:07:06;;;;;;;10.40;7.25;;;5.20;99.90;;;;;;5035355;28;20095;-48
2021/12/27 06:09:31;;;;;;;10.15;7.30;;;5.00;99.90;;;;;;5031782;28;20049;-49
2021/12/27 06:11:57;;;;;;;11.32;7.43;;;4.90;99.90;;;;;;5021977;28;20551;-49
2021/12/27 06:14:23;;;;;;;10.80;8.25;;;4.60;99.90;;;;;;5019875;28;20044;-49
2021/12/27 06:16:48;;;;;;;14.07;10.85;;;4.50;99.90;;;;;;4985343;28;20041;-50
2021/12/27 06:19:14;;;;;;;13.80;9.48;;;4.40;99.90;;;;;;5014697;28;20049;-51
2021/12/27 06:21:40;;;;;;;12.50;8.85;;;4.50;99.90;;;;;;5030639;28;20033;-50
2021/12/27 06:24:06;;;;;;;14.55;10.90;;;4.60;99.90;;;;;;5034930;28;20041;-50
2021/12/27 06:26:32;;;;;;;48.33;40.42;;;4.60;99.90;;;;;;4984202;28;20045;-50
2021/12/27 06:28:57;;;;;;;12.18;8.20;;;4.70;99.90;;;;;;5004829;28;20048;-50
2021/12/27 06:31:23;;;;;;;64.20;42.88;;;4.60;99.90;;;;;;5033207;28;20083;-49
2021/12/27 06:33:49;;;;;;;10.05;7.00;;;4.50;99.90;;;;;;5033899;28;20050;-50
2021/12/27 06:36:15;;;;;;;10.73;8.65;;;4.60;99.90;;;;;;4982483;28;20049;-50
2021/12/27 06:38:41;;;;;;;12.05;9.80;;;4.60;99.90;;;;;;4981585;28;20038;-50
2021/12/27 06:41:07;;;;;;;14.30;10.23;;;4.60;99.90;;;;;;5015602;28;20030;-49
2021/12/27 06:43:33;;;;;;;11.30;9.68;;;4.60;99.90;;;;;;5031274;28;20079;-49
2021/12/27 06:45:59;;;;;;;12.30;9.30;;;4.50;99.90;;;;;;4980068;28;20043;-50
2021/12/27 06:48:26;;;;;;;12.85;10.20;;;4.40;99.90;;;;;;4971127;28;20039;-49
2021/12/27 06:50:52;;;;;;;11.20;8.43;;;4.30;99.90;;;;;;4965533;28;20047;-50
2021/12/27 06:53:18;;;;;;;13.15;9.50;;;4.10;99.90;;;;;;4950524;28;20499;-50
2021/12/27 06:55:44;;;;;;;10.95;8.73;;;4.30;99.90;;;;;;4965560;28;20502;-50
2021/12/27 06:58:10;;;;;;;13.02;9.15;;;4.40;99.90;;;;;;4955071;29;20035;-50
2021/12/27 07:00:36;;;;;;;11.63;9.13;;;4.40;99.90;;;;;;4955240;29;20129;-49
2021/12/27 07:03:02;;;;;;;9.65;7.40;;;4.40;99.90;;;;;;4954958;29;20508;-50
2021/12/27 07:05:28;;;;;;;7.10;5.32;;;4.50;99.90;;;;;;4962350;28;20097;-49
2021/12/27 07:07:53;;;;;;;8.82;6.95;;;4.50;99.90;;;;;;4974316;28;20034;-50
2021/12/27 07:10:21;;;;;;;9.07;5.30;;;4.50;99.90;;;;;;4974131;28;20510;-50
2021/12/27 07:12:47;;;;;;;6.90;5.38;;;4.30;99.90;;;;;;4922543;29;20055;-49
2021/12/27 07:15:12;;;;;;;20.65;14.38;;;4.30;99.90;;;;;;4965484;28;20092;-50
2021/12/27 07:17:38;;;;;;;8.07;6.35;;;4.10;99.90;;;;;;4968517;28;20049;-49
2021/12/27 07:20:05;;;;;;;7.72;5.20;;;4.00;99.90;;;;;;4980861;28;20053;-49
2021/12/27 07:22:31;;;;;;;6.65;5.80;;;4.00;99.90;;;;;;5015178;28;20036;-49
2021/12/27 07:24:57;;;;;;;8.25;5.95;;;4.00;99.90;;;;;;4980656;28;20486;-49
2021/12/27 07:27:23;;;;;;;9.00;7.43;;;3.90;99.90;;;;;;4980675;28;20045;-50
2021/12/27 07:29:49;;;;;;;9.00;7.40;;;3.90;99.90;;;;;;5015209;28;20493;-50
2021/12/27 07:32:14;;;;;;;8.13;5.70;;;3.80;99.90;;;;;;5013952;28;20045;-49
2021/12/27 07:34:41;;;;;;;8.48;5.93;;;3.80;99.90;;;;;;4980808;28;20124;-50
2021/12/27 07:37:07;;;;;;;11.80;9.02;;;3.90;99.90;;;;;;5014699;28;20037;-49
2021/12/27 07:39:33;;;;;;;9.52;7.07;;;3.90;99.90;;;;;;5023521;28;20037;-50
2021/12/27 07:41:59;;;;;;;10.45;7.78;;;3.90;99.90;;;;;;5014779;28;20033;-50
2021/12/27 07:44:24;;;;;;;11.80;9.13;;;3.90;99.90;;;;;;5014504;28;20371;-50
2021/12/27 07:46:51;;;;;;;5.78;4.90;;;4.00;99.90;;;;;;5014620;28;20030;-49
2021/12/27 07:49:17;;;;;;;7.88;6.43;;;3.70;99.90;;;;;;5014535;28;20088;-50
2021/12/27 07:51:43;;;;;;;15.20;8.32;;;3.70;99.90;;;;;;5015009;28;20428;-50
2021/12/27 07:54:09;;;;;;;19.50;10.45;;;3.80;99.90;;;;;;5014297;28;20122;-49
2021/12/27 07:56:37;;;;;;;10.20;7.15;;;3.80;99.90;;;;;;4987541;28;20045;-50
2021/12/27 07:59:04;;;;;;;13.15;8.45;;;3.90;99.90;;;;;;5034316;28;20064;-50
2021/12/27 08:01:36;;;;;;;15.10;10.35;;;3.90;99.90;;;;;;5025321;28;20033;-49
2021/12/27 08:04:03;;;;;;;10.55;6.68;;;4.00;99.90;;;;;;5014569;28;20049;-49
2021/12/27 08:06:29;;;;;;;120.18;96.15;;;3.90;99.90;;;;;;4983853;28;20045;-50
2021/12/27 08:08:55;;;;;;;10.30;7.75;;;3.90;99.90;;;;;;5033738;28;20029;-50
2021/12/27 08:11:21;;;;;;;6.07;4.70;;;3.90;99.90;;;;;;5034564;28;20029;-50
2021/12/27 08:13:47;;;;;;;5.25;4.38;;;3.80;99.90;;;;;;5034056;28;20041;-50
2021/12/27 08:16:13;;;;;;;6.53;5.22;;;3.70;99.90;;;;;;5033766;28;20484;-50
2021/12/27 08:18:41;;;;;;;5.28;4.40;;;3.50;99.90;;;;;;5033796;28;20462;-50
2021/12/27 08:21:07;;;;;;;7.70;5.63;;;3.40;99.90;;;;;;5033882;28;20033;-49
2021/12/27 08:23:33;;;;;;;10.68;7.85;;;3.40;99.90;;;;;;5033365;28;20453;-49
2021/12/27 08:25:59;;;;;;;8.75;7.07;;;3.60;99.90;;;;;;5033973;28;20439;-50
2021/12/27 08:28:24;;;;;;;11.18;5.82;;;3.70;99.90;;;;;;4999000;28;20172;-50
2021/12/27 08:30:50;;;;;;;67.70;39.60;;;3.70;99.90;;;;;;4950886;28;20067;-50
2021/12/27 08:33:16;;;;;;;209.55;84.22;;;3.60;99.90;;;;;;5033872;28;20069;-50
2021/12/27 08:35:42;;;;;;;94.15;41.78;;;3.70;99.90;;;;;;5033540;28;20083;-49
2021/12/27 08:38:08;;;;;;;9.68;7.15;;;3.60;99.90;;;;;;5033535;28;20026;-49
2021/12/27 08:40:34;;;;;;;76.00;37.38;;;3.50;99.90;;;;;;4999131;28;20539;-50
2021/12/27 08:43:00;;;;;;;9.35;6.47;;;3.70;99.90;;;;;;5033430;28;20112;-49
2021/12/27 08:45:26;;;;;;;23.20;14.95;;;3.70;99.90;;;;;;4982874;28;20060;-50
2021/12/27 08:47:51;;;;;;;7.35;4.43;;;3.70;99.90;;;;;;5032759;28;20044;-50
2021/12/27 08:50:17;;;;;;;5.82;4.68;;;3.50;99.90;;;;;;5033537;28;20030;-49
2021/12/27 08:52:45;;;;;;;8.32;6.07;;;3.60;99.90;;;;;;5033455;28;20041;-50
2021/12/27 08:55:12;;;;;;;8.07;5.50;;;3.80;99.90;;;;;;5015026;28;20061;-50
2021/12/27 08:57:38;;;;;;;11.05;7.50;;;3.80;99.90;;;;;;5019046;28;20437;-49
2021/12/27 09:00:08;;;;;;;9.98;7.03;;;3.80;99.90;;;;;;5013699;28;20104;-49
2021/12/27 09:02:33;;;;;;;6.50;5.05;;;3.90;99.90;;;;;;4979103;28;20073;-49
2021/12/27 09:05:02;;;;;;;5.15;4.13;;;3.90;99.90;;;;;;4953116;28;20058;-50
2021/12/27 09:07:27;;;;;;;90.93;70.20;;;3.80;99.90;;;;;;5012585;28;20046;-50
2021/12/27 09:09:53;;;;;;;6.10;4.40;;;3.80;99.90;;;;;;5013534;28;20033;-49
2021/12/27 09:12:19;;;;;;;14.82;9.30;;;3.90;99.90;;;;;;5013076;28;20418;-50
2021/12/27 09:14:45;;;;;;;11.85;9.73;;;4.00;99.90;;;;;;5013658;28;20044;-50
2021/12/27 09:17:11;;;;;;;18.60;13.60;;;4.10;99.90;;;;;;5013652;28;20113;-50
2021/12/27 09:19:37;;;;;;;404.73;370.10;;;4.10;99.90;;;;;;5013263;28;20125;-49
2021/12/27 09:22:03;;;;;;;22.35;20.05;;;4.10;99.90;;;;;;5013056;28;20084;-50
2021/12/27 09:24:31;;;;;;;418.58;373.50;;;3.90;99.90;;;;;;5011580;28;20041;-50
2021/12/27 09:26:58;;;;;;;10.13;6.07;;;3.90;99.90;;;;;;5013063;28;20033;-49
2021/12/27 09:29:24;;;;;;;10.13;6.22;;;3.90;99.90;;;;;;5013167;28;20398;-50
2021/12/27 09:31:50;;;;;;;271.40;248.20;;;3.90;99.90;;;;;;4995798;28;20125;-49
2021/12/27 09:34:17;;;;;;;7.25;4.50;;;4.00;99.90;;;;;;5012194;28;20081;-50
2021/12/27 09:36:43;;;;;;;7.95;5.32;;;4.00;99.90;;;;;;5011858;28;20037;-50
2021/12/27 09:39:09;;;;;;;8.18;5.63;;;4.10;99.90;;;;;;4993940;28;20034;-49
2021/12/27 09:41:35;;;;;;;6.05;4.22;;;4.00;99.90;;;;;;5002867;28;20033;-50
2021/12/27 09:44:02;;;;;;;7.38;4.88;;;3.80;99.90;;;;;;5011761;28;20037;-50
2021/12/27 09:46:28;;;;;;;91.55;78.22;;;3.90;99.90;;;;;;5001770;28;20045;-49
2021/12/27 09:48:57;;;;;;;6.07;4.35;;;4.00;99.90;;;;;;4993543;28;20038;-50
2021/12/27 09:51:23;;;;;;;7.47;4.40;;;3.90;99.90;;;;;;5005404;28;20049;-49
2021/12/27 09:53:50;;;;;;;5.88;4.38;;;3.90;99.90;;;;;;5012867;28;20060;-50
2021/12/27 09:56:15;;;;;;;7.03;5.13;;;3.90;99.90;;;;;;4996784;28;20045;-50
2021/12/27 09:58:41;;;;;;;8.57;6.00;;;3.90;99.90;;;;;;5016444;28;20104;-50
2021/12/27 10:01:08;;;;;;;8.02;5.63;;;3.80;99.90;;;;;;4962774;28;20069;-50
2021/12/27 10:03:48;;;;;;;15.40;9.07;;;3.80;99.90;;;;;;4996828;28;20057;-50
2021/12/27 10:06:15;;;;;;;10.85;8.15;;;4.00;99.90;;;;;;4997250;28;20035;-50
2021/12/27 10:08:46;;;;;;;8.20;6.63;;;4.00;99.90;;;;;;4946685;28;20038;-49
2021/12/27 10:11:43;;;;;;;13.57;10.30;;;4.10;99.90;;;;;;4962935;28;20045;-49
2021/12/27 10:14:11;;;;;;;8.55;6.80;;;4.20;99.90;;;;;;4920338;29;20290;-49
2021/12/27 10:16:48;;;;;;;13.75;9.65;;;4.30;99.90;;;;;;4936792;29;20032;-49
2021/12/27 10:19:16;;;;;;;15.02;9.20;;;4.40;99.90;;;;;;4920817;29;20075;-49
2021/12/27 10:21:47;;;;;;;17.80;12.15;;;4.60;99.90;;;;;;4938360;29;20593;-50
2021/12/27 10:24:19;;;;;;;11.63;8.88;;;4.70;99.90;;;;;;4937356;29;20075;-49
2021/12/27 10:26:49;;;;;;;12.77;10.43;;;4.60;99.90;;;;;;4936780;29;20031;-50
2021/12/27 10:29:20;;;;;;;14.80;10.93;;;4.70;99.90;;;;;;4936738;29;20127;-50
2021/12/27 10:31:53;;;;;;;14.43;10.95;;;4.60;99.90;;;;;;4936534;29;20447;-49
2021/12/27 10:34:20;;;;;;;13.00;10.15;;;4.70;99.90;;;;;;4937940;29;20039;-50
2021/12/27 10:37:22;;;;;;;13.88;10.60;;;4.50;99.90;;;;;;4952199;29;20098;-50
2021/12/27 10:39:56;;;;;;;21.42;11.45;;;4.50;99.90;;;;;;4953792;29;20528;-50
2021/12/27 10:42:24;;;;;;;9.13;7.82;;;4.50;99.90;;;;;;4955341;29;20035;-50
2021/12/27 10:44:53;;;;;;;12.90;8.60;;;4.40;99.90;;;;;;4959461;28;20035;-49
2021/12/27 10:47:31;;;;;;;10.60;8.05;;;4.30;99.90;;;;;;4955473;29;20083;-50
2021/12/27 10:50:10;;;;;;;10.23;6.70;;;4.50;99.90;;;;;;4951734;28;20038;-50
2021/12/27 10:53:01;;;;;;;380.80;352.27;;;4.50;99.90;;;;;;4934179;28;20053;-50
2021/12/27 10:55:42;;;;;;;8.95;7.10;;;4.50;99.90;;;;;;5013129;28;20037;-50
2021/12/27 10:58:25;;;;;;;7.25;4.68;;;4.60;99.90;;;;;;5022271;28;20041;-49
2021/12/27 11:00:59;;;;;;;60.60;50.50;;;4.50;99.90;;;;;;5023754;28;20030;-50
2021/12/27 11:03:35;;;;;;;612.07;548.57;;;4.50;99.90;;;;;;5021930;28;20050;-49
2021/12/27 11:06:04;;;;;;;533.97;494.25;;;4.40;99.90;;;;;;5020315;28;20033;-47
2021/12/27 11:08:31;;;;;;;572.93;514.47;;;4.50;99.90;;;;;;5023188;28;20117;-51
2021/12/27 11:10:57;;;;;;;94.60;82.88;;;4.40;99.90;;;;;;5025172;28;20022;-50
2021/12/27 11:13:26;;;;;;;675.28;611.35;;;4.50;99.90;;;;;;5024242;28;20491;-50
2021/12/27 11:15:52;;;;;;;540.75;492.30;;;4.50;99.90;;;;;;4975531;28;20041;-50
2021/12/27 11:18:18;;;;;;;592.10;528.37;;;4.50;99.90;;;;;;5026721;28;20041;-50
2021/12/27 11:20:51;;;;;;;21.58;8.32;;;4.50;99.90;;;;;;5022170;28;20029;-51
2021/12/27 11:23:21;;;;;;;595.17;531.57;;;4.40;99.90;;;;;;4997007;28;20385;-50
2021/12/27 11:25:47;;;;;;;388.80;309.03;;;4.00;99.90;;;;;;5006944;28;20033;-48
2021/12/27 11:28:28;;;;;;;11.35;8.20;;;4.20;99.90;;;;;;5009588;28;20049;-54
2021/12/27 11:30:56;;;;;;;12.07;7.68;;;4.20;99.90;;;;;;5031139;28;20037;-52
2021/12/27 11:33:22;;;;;;;7.30;5.35;;;4.20;99.90;;;;;;5034699;28;20507;-53
2021/12/27 11:35:57;;;;;;;12.57;10.98;;;4.20;99.90;;;;;;4991804;28;20458;-51
2021/12/27 11:38:33;;;;;;;12.48;8.25;;;4.40;99.90;;;;;;5030209;28;20037;-55
2021/12/27 11:41:01;;;;;;;9.98;6.05;;;4.10;99.90;;;;;;4998695;28;20048;-54
2021/12/27 11:43:56;;;;;;;9.35;7.03;;;4.30;99.90;;;;;;4981123;28;20046;-55
2021/12/27 11:46:26;;;;;;;14.15;10.65;;;4.30;99.90;;;;;;4994816;28;20041;-54
2021/12/27 11:48:58;;;;;;;10.70;8.48;;;4.50;99.90;;;;;;5003848;28;20037;-54
2021/12/27 11:51:46;;;;;;;16.15;11.45;;;4.30;99.90;;;;;;5013915;28;20038;-55
2021/12/27 11:54:33;;;;;;;15.40;10.73;;;4.40;99.90;;;;;;5013570;28;20045;-53
2021/12/27 11:56:58;;;;;;;10.23;7.60;;;4.30;99.90;;;;;;5013643;28;20033;-53
2021/12/27 11:59:32;;;;;;;8.82;7.07;;;4.30;99.90;;;;;;5003477;28;20528;-55
2021/12/27 12:02:14;;;;;;;12.82;9.63;;;4.30;99.90;;;;;;5018122;28;20091;-55
2021/12/27 12:04:46;;;;;;;14.38;10.65;;;4.40;99.90;;;;;;5013223;28;20077;-54
2021/12/27 12:07:33;;;;;;;13.80;10.65;;;4.50;99.90;;;;;;5013053;28;20049;-53
2021/12/27 12:10:26;;;;;;;10.95;7.25;;;4.70;99.90;;;;;;5012946;28;20042;-54
2021/12/27 12:13:15;;;;;;;13.05;9.10;;;4.40;99.90;;;;;;5009392;28;20049;-53
2021/12/27 12:16:00;;;;;;;14.20;11.10;;;4.50;99.90;;;;;;5014748;28;20132;-53
2021/12/27 12:18:31;;;;;;;14.23;11.02;;;4.60;99.90;;;;;;4977551;28;20055;-55
2021/12/27 12:20:58;;;;;;;12.88;10.30;;;4.60;99.90;;;;;;4976933;28;20720;-53
2021/12/27 12:23:24;;;;;;;15.27;11.35;;;4.80;99.90;;;;;;4972296;28;20068;-55
2021/12/27 12:25:58;;;;;;;624.43;562.73;;;5.00;99.90;;;;;;4969602;28;20058;-54
2021/12/27 12:28:24;;;;;;;288.95;262.17;;;5.00;99.90;;;;;;4972848;28;20042;-52
2021/12/27 12:30:51;;;;;;;14.50;11.50;;;4.80;99.90;;;;;;4934284;28;20054;-54
2021/12/27 12:33:24;;;;;;;62.83;33.30;;;5.80;99.90;;;;;;4976927;28;20053;-52
2021/12/27 12:35:57;;;;;;;39.30;20.00;;;4.90;99.90;;;;;;4973842;28;20050;-51
2021/12/27 12:38:31;;;;;;;70.22;36.95;;;4.90;99.90;;;;;;4982759;28;20042;-51
2021/12/27 12:41:10;;;;;;;21.02;14.40;;;4.60;99.90;;;;;;4990705;28;20035;-54
2021/12/27 12:43:43;;;;;;;44.75;22.85;;;4.70;99.90;;;;;;4990581;28;20068;-54
2021/12/27 12:46:17;;;;;;;31.13;17.40;;;4.70;99.90;;;;;;4939744;28;20145;-55
2021/12/27 12:48:44;;;;;;;20.42;12.07;;;4.90;99.90;;;;;;4979827;28;20033;-55
2021/12/27 12:51:10;;;;;;;18.27;12.93;;;4.80;99.90;;;;;;5013001;28;20368;-53